Keizer, OR

9:56 PM PDT on October 25, 2014 (GMT -0700)
McNary | Change Station
CLOSE
Current Station
Airport
Location: Salem,
Elevation: 200 ft
Nearby Weather Stations

Elev 200 ft 44.91 °N, 123.00 °W | Updated 1 hour ago

Rain
Rain
52 °F
Feels Like 52 °F
N
9
Wind Variable Wind from South

Today
High -- | Low -- °F
--% Chance of Precip.
Yesterday
High -- | Low -- °F
Precip. -- in
7:41 AM 6:10 PM
Waxing Crescent, 6% visible
Pressure 29.85 in
Visibility 10.0 miles
Clouds Few 6000 ft
Mostly Cloudy 9000 ft
Overcast 12000 ft
Dew Point 48 °F
Humidity 86%
Rainfall 0.25 in
Snow Depth Not available.
UV 0 out of 12
Pollen .30 out of 12
Air Quality Not available.
Flu Activity Sporadic
METAR KSLE 260356Z AUTO 19008KT 10SM FEW060 BKN090 OVC120 11/09 A2985 RMK AO2 RAE51 SLP108 P0003 T01110089

More Conditions Fewer Conditions

Pressure 29.85 in
Visibility 10.0 miles
Clouds Few 6000 ft
Mostly Cloudy 9000 ft
Overcast 12000 ft
Dew Point 48 °F
Humidity 86%
Rainfall 0.25 in
Snow Depth Not available.
UV 0 out of 12
Pollen .30 out of 12
Air Quality Not available.
Flu Activity Sporadic
METAR KSLE 260356Z AUTO 19008KT 10SM FEW060 BKN090 OVC120 11/09 A2985 RMK AO2 RAE51 SLP108 P0003 T01110089

More Conditions Fewer Conditions

10-Day Weather Forecast

Almanac

Astronomy

Oct. 25, 2014 Rise Set
Actual Time 7:41 AM PDT 6:10 PM PDT
Civil Twilight 7:11 AM PDT 6:40 PM PDT
Nautical Twilight 6:36 AM PDT 7:14 PM PDT
Astronomical Twilight 6:02 AM PDT 7:48 PM PDT
Moon 9:29 AM PDT (10/25) 7:33 PM PDT (10/25)
Length of Visible Light 11h 29m
Length of Day
10h 29m
Tomorrow will be 2m 54s shorter.
Waxing Crescent, 6% of the Moon is Illuminated
Oct 26
Waxing Crescent
Oct 30
First Quarter
Nov 6
Full
Nov 14
Last Quarter
Nov 22
New

Yesterday's Extremes

State Highs State Lows

Community

WunderPhotos

Upload Photos

1,765,111 photos uploaded!

Nearby

Snow Depth

Station Depth Elevation
Seine Creek 0 in 2000 ft
Saddle Mountain 3 in 3250 ft
Little Meadows 0 in 4000 ft
Peavine Ridge 0 in 3500 ft
Daly Lake 0 in 3600 ft

Earthquake Activity

City Distance Mag. Time & Date
No recent earthquake activity has been reported nearby.
Minimum magnitude displayed is 2.5.

Coastal Water Temperatures

Place Temperature
No Stations Reporting

Nearby Weather Stations